sensor_id;sensor_type;location;lat;lon;timestamp;pressure;altitude;pressure_sealevel;temperature;humidity
41573;BME280;27286;47.870;19.006;2023-04-07T00:00:41;99009.50;;;1.90;81.60
41573;BME280;27286;47.870;19.006;2023-04-07T00:03:07;99012.03;;;1.91;81.50
41573;BME280;27286;47.870;19.006;2023-04-07T00:05:33;99009.50;;;1.90;81.53
41573;BME280;27286;47.870;19.006;2023-04-07T00:07:58;99007.81;;;1.89;82.01
41573;BME280;27286;47.870;19.006;2023-04-07T00:10:24;99008.69;;;1.86;83.10
41573;BME280;27286;47.870;19.006;2023-04-07T00:12:50;99006.16;;;1.81;83.16
41573;BME280;27286;47.870;19.006;2023-04-07T00:15:15;99004.44;;;1.82;83.19
41573;BME280;27286;47.870;19.006;2023-04-07T00:17:41;99001.91;;;1.80;83.65
41573;BME280;27286;47.870;19.006;2023-04-07T00:20:07;99001.09;;;1.78;83.99
41573;BME280;27286;47.870;19.006;2023-04-07T00:22:32;99000.25;;;1.76;84.13
41573;BME280;27286;47.870;19.006;2023-04-07T00:24:58;98990.91;;;1.72;84.51
41573;BME280;27286;47.870;19.006;2023-04-07T00:27:23;98996.03;;;1.72;84.93
41573;BME280;27286;47.870;19.006;2023-04-07T00:29:49;99001.16;;;1.72;84.31
41573;BME280;27286;47.870;19.006;2023-04-07T00:32:14;98991.72;;;1.74;84.25
41573;BME280;27286;47.870;19.006;2023-04-07T00:34:39;98990.84;;;1.77;85.55
41573;BME280;27286;47.870;19.006;2023-04-07T00:37:05;98996.81;;;1.77;85.81
41573;BME280;27286;47.870;19.006;2023-04-07T00:39:31;98986.56;;;1.77;85.31
41573;BME280;27286;47.870;19.006;2023-04-07T00:41:57;98982.25;;;1.79;84.68
41573;BME280;27286;47.870;19.006;2023-04-07T00:44:22;98982.25;;;1.79;84.33
41573;BME280;27286;47.870;19.006;2023-04-07T00:46:48;98980.66;;;1.72;84.22
41573;BME280;27286;47.870;19.006;2023-04-07T00:49:14;98973.81;;;1.71;84.72
41573;BME280;27286;47.870;19.006;2023-04-07T00:51:42;98977.22;;;1.73;84.37
41573;BME280;27286;47.870;19.006;2023-04-07T00:54:08;98977.22;;;1.73;84.63
41573;BME280;27286;47.870;19.006;2023-04-07T00:56:34;98972.06;;;1.73;83.38
41573;BME280;27286;47.870;19.006;2023-04-07T00:59:00;98967.84;;;1.71;84.17
41573;BME280;27286;47.870;19.006;2023-04-07T01:01:29;98970.38;;;1.72;84.91
41573;BME280;27286;47.870;19.006;2023-04-07T01:04:00;98956.75;;;1.69;84.26
41573;BME280;27286;47.870;19.006;2023-04-07T01:06:31;98967.75;;;1.75;84.08
41573;BME280;27286;47.870;19.006;2023-04-07T01:09:20;98966.88;;;1.78;83.82
41573;BME280;27286;47.870;19.006;2023-04-07T01:15:11;98965.88;;;1.88;85.17
41573;BME280;27286;47.870;19.006;2023-04-07T01:17:47;98961.53;;;1.93;85.20
41573;BME280;27286;47.870;19.006;2023-04-07T01:20:16;98963.19;;;1.96;84.49
41573;BME280;27286;47.870;19.006;2023-04-07T01:22:53;98956.31;;;1.98;84.03
41573;BME280;27286;47.870;19.006;2023-04-07T01:28:22;98958.03;;;1.99;83.32
41573;BME280;27286;47.870;19.006;2023-04-07T01:30:55;98959.75;;;1.97;83.70
41573;BME280;27286;47.870;19.006;2023-04-07T01:33:22;98958.97;;;1.93;84.29
41573;BME280;27286;47.870;19.006;2023-04-07T01:35:48;98963.31;;;1.90;84.56
41573;BME280;27286;47.870;19.006;2023-04-07T01:38:16;98949.66;;;1.85;84.84
41573;BME280;27286;47.870;19.006;2023-04-07T01:40:42;98952.28;;;1.81;84.53
41573;BME280;27286;47.870;19.006;2023-04-07T01:43:09;98954.00;;;1.79;84.69
41573;BME280;27286;47.870;19.006;2023-04-07T01:45:36;98948.00;;;1.80;84.32
41573;BME280;27286;47.870;19.006;2023-04-07T01:48:04;98947.16;;;1.80;84.74
41573;BME280;27286;47.870;19.006;2023-04-07T01:50:32;98953.13;;;1.82;84.64
41573;BME280;27286;47.870;19.006;2023-04-07T01:52:58;98947.97;;;1.85;83.80
41573;BME280;27286;47.870;19.006;2023-04-07T01:55:23;98954.78;;;1.85;84.06
41573;BME280;27286;47.870;19.006;2023-04-07T01:57:52;98953.13;;;1.82;83.89
41573;BME280;27286;47.870;19.006;2023-04-07T02:00:17;98965.94;;;1.82;83.74
41573;BME280;27286;47.870;19.006;2023-04-07T02:02:44;98961.66;;;1.84;83.84
41573;BME280;27286;47.870;19.006;2023-04-07T02:05:12;98958.22;;;1.87;83.12
41573;BME280;27286;47.870;19.006;2023-04-07T02:07:52;98961.59;;;1.89;83.25
41573;BME280;27286;47.870;19.006;2023-04-07T02:10:22;98957.31;;;1.89;83.39
41573;BME280;27286;47.870;19.006;2023-04-07T02:12:48;98960.78;;;1.87;83.99
41573;BME280;27286;47.870;19.006;2023-04-07T02:15:14;98948.84;;;1.81;83.98
41573;BME280;27286;47.870;19.006;2023-04-07T02:17:43;98957.44;;;1.80;83.92
41573;BME280;27286;47.870;19.006;2023-04-07T02:20:11;98946.31;;;1.79;84.87
41573;BME280;27286;47.870;19.006;2023-04-07T02:22:40;98934.38;;;1.77;84.69
41573;BME280;27286;47.870;19.006;2023-04-07T02:25:28;98939.44;;;1.81;85.25
41573;BME280;27286;47.870;19.006;2023-04-07T02:27:55;98937.78;;;1.77;85.45
41573;BME280;27286;47.870;19.006;2023-04-07T02:30:21;98942.09;;;1.75;85.38
41573;BME280;27286;47.870;19.006;2023-04-07T02:32:47;98935.34;;;1.70;85.28
41573;BME280;27286;47.870;19.006;2023-04-07T02:35:13;98942.94;;;1.76;85.36
41573;BME280;27286;47.870;19.006;2023-04-07T02:37:39;98942.88;;;1.80;84.96
41573;BME280;27286;47.870;19.006;2023-04-07T02:40:05;98948.00;;;1.82;83.80
41573;BME280;27286;47.870;19.006;2023-04-07T02:42:31;98952.34;;;1.77;83.84
41573;BME280;27286;47.870;19.006;2023-04-07T02:44:56;98940.34;;;1.79;84.09
41573;BME280;27286;47.870;19.006;2023-04-07T02:47:22;98936.09;;;1.76;85.21
41573;BME280;27286;47.870;19.006;2023-04-07T02:49:47;98936.09;;;1.76;84.69
41573;BME280;27286;47.870;19.006;2023-04-07T02:52:13;98942.13;;;1.74;84.66
41573;BME280;27286;47.870;19.006;2023-04-07T02:54:38;98931.88;;;1.74;84.57
41573;BME280;27286;47.870;19.006;2023-04-07T02:57:04;98939.59;;;1.71;84.89
41573;BME280;27286;47.870;19.006;2023-04-07T02:59:29;98940.47;;;1.70;84.72
41573;BME280;27286;47.870;19.006;2023-04-07T03:01:55;98931.94;;;1.66;85.15
41573;BME280;27286;47.870;19.006;2023-04-07T03:04:20;98944.66;;;1.75;85.63
41573;BME280;27286;47.870;19.006;2023-04-07T03:06:46;98942.03;;;1.80;85.69
41573;BME280;27286;47.870;19.006;2023-04-07T03:09:11;98943.69;;;1.83;85.51
41573;BME280;27286;47.870;19.006;2023-04-07T03:11:37;98948.81;;;1.84;84.47
41573;BME280;27286;47.870;19.006;2023-04-07T03:14:03;98947.97;;;1.84;84.63
41573;BME280;27286;47.870;19.006;2023-04-07T03:16:28;98944.53;;;1.86;84.30
41573;BME280;27286;47.870;19.006;2023-04-07T03:18:54;98940.22;;;1.88;83.15
41573;BME280;27286;47.870;19.006;2023-04-07T03:21:19;98941.06;;;1.89;83.49
41573;BME280;27286;47.870;19.006;2023-04-07T03:23:44;98946.25;;;1.86;84.27
41573;BME280;27286;47.870;19.006;2023-04-07T03:26:10;98943.69;;;1.84;84.26
41573;BME280;27286;47.870;19.006;2023-04-07T03:28:36;98950.50;;;1.87;83.82
41573;BME280;27286;47.870;19.006;2023-04-07T03:31:01;98955.66;;;1.84;84.92
41573;BME280;27286;47.870;19.006;2023-04-07T03:33:26;98952.22;;;1.86;85.56
41573;BME280;27286;47.870;19.006;2023-04-07T03:35:52;98942.84;;;1.84;86.21
41573;BME280;27286;47.870;19.006;2023-04-07T03:38:17;98947.06;;;1.88;85.81
41573;BME280;27286;47.870;19.006;2023-04-07T03:40:43;98942.78;;;1.88;85.17
41573;BME280;27286;47.870;19.006;2023-04-07T03:43:08;98944.47;;;1.91;84.08
41573;BME280;27286;47.870;19.006;2023-04-07T03:45:38;98938.44;;;1.92;84.05
41573;BME280;27286;47.870;19.006;2023-04-07T03:48:04;98936.78;;;1.89;83.44
41573;BME280;27286;47.870;19.006;2023-04-07T03:50:29;98944.41;;;1.94;83.22
41573;BME280;27286;47.870;19.006;2023-04-07T03:52:55;98927.50;;;1.79;83.71
41573;BME280;27286;47.870;19.006;2023-04-07T03:55:21;98947.88;;;1.91;83.03
41573;BME280;27286;47.870;19.006;2023-04-07T03:57:46;98951.25;;;1.95;83.56
41573;BME280;27286;47.870;19.006;2023-04-07T04:00:12;98952.06;;;1.97;83.00
41573;BME280;27286;47.870;19.006;2023-04-07T04:02:38;98949.44;;;2.00;83.04
41573;BME280;27286;47.870;19.006;2023-04-07T04:05:03;98942.66;;;1.96;82.74
41573;BME280;27286;47.870;19.006;2023-04-07T04:07:29;98940.91;;;1.98;84.06
41573;BME280;27286;47.870;19.006;2023-04-07T04:09:55;98951.19;;;1.98;84.24
41573;BME280;27286;47.870;19.006;2023-04-07T04:12:20;98960.56;;;2.02;83.96
41573;BME280;27286;47.870;19.006;2023-04-07T04:14:46;98961.38;;;2.05;83.64
41573;BME280;27286;47.870;19.006;2023-04-07T04:17:11;98965.63;;;2.06;84.66
41573;BME280;27286;47.870;19.006;2023-04-07T04:19:37;98971.50;;;2.13;83.85
41573;BME280;27286;47.870;19.006;2023-04-07T04:22:02;98978.28;;;2.17;84.63
41573;BME280;27286;47.870;19.006;2023-04-07T04:24:27;98979.97;;;2.21;84.48
41573;BME280;27286;47.870;19.006;2023-04-07T04:26:53;98984.22;;;2.24;84.41
41573;BME280;27286;47.870;19.006;2023-04-07T04:29:18;98979.88;;;2.27;82.30
41573;BME280;27286;47.870;19.006;2023-04-07T04:31:44;98979.88;;;2.27;82.03
41573;BME280;27286;47.870;19.006;2023-04-07T04:34:09;98978.97;;;2.30;81.26
41573;BME280;27286;47.870;19.006;2023-04-07T04:36:35;98974.69;;;2.30;80.52
41573;BME280;27286;47.870;19.006;2023-04-07T04:39:00;98980.63;;;2.32;80.49
41573;BME280;27286;47.870;19.006;2023-04-07T04:41:26;98982.41;;;2.29;80.10
41573;BME280;27286;47.870;19.006;2023-04-07T04:43:51;98986.59;;;2.34;80.19
41573;BME280;27286;47.870;19.006;2023-04-07T04:46:16;98980.63;;;2.32;80.64
41573;BME280;27286;47.870;19.006;2023-04-07T04:48:42;98983.19;;;2.35;81.29
41573;BME280;27286;47.870;19.006;2023-04-07T04:51:07;98983.06;;;2.41;78.97
41573;BME280;27286;47.870;19.006;2023-04-07T04:53:33;98980.56;;;2.38;79.25
41573;BME280;27286;47.870;19.006;2023-04-07T04:55:58;98996.00;;;2.37;79.23
41573;BME280;27286;47.870;19.006;2023-04-07T04:58:23;99003.69;;;2.38;80.31
41573;BME280;27286;47.870;19.006;2023-04-07T05:00:52;98999.38;;;2.39;79.22
41573;BME280;27286;47.870;19.006;2023-04-07T05:03:22;98995.91;;;2.41;80.57
41573;BME280;27286;47.870;19.006;2023-04-07T05:05:47;99001.94;;;2.40;80.01
41573;BME280;27286;47.870;19.006;2023-04-07T05:08:13;98994.16;;;2.45;79.53
41573;BME280;27286;47.870;19.006;2023-04-07T05:10:38;98990.78;;;2.41;79.14
41573;BME280;27286;47.870;19.006;2023-04-07T05:13:04;99001.06;;;2.41;79.84
41573;BME280;27286;47.870;19.006;2023-04-07T05:15:30;99007.06;;;2.40;79.51
41573;BME280;27286;47.870;19.006;2023-04-07T05:17:55;99010.47;;;2.42;79.43
41573;BME280;27286;47.870;19.006;2023-04-07T05:20:21;99014.75;;;2.42;79.87
41573;BME280;27286;47.870;19.006;2023-04-07T05:22:46;99006.19;;;2.41;80.12
41573;BME280;27286;47.870;19.006;2023-04-07T05:25:11;99017.34;;;2.40;80.07
41573;BME280;27286;47.870;19.006;2023-04-07T05:27:37;99023.34;;;2.39;80.92
41573;BME280;27286;47.870;19.006;2023-04-07T05:30:02;99027.63;;;2.40;80.40
41573;BME280;27286;47.870;19.006;2023-04-07T05:32:28;99020.72;;;2.42;81.07
41573;BME280;27286;47.870;19.006;2023-04-07T05:34:53;99026.69;;;2.45;80.43
41573;BME280;27286;47.870;19.006;2023-04-07T05:37:19;99026.66;;;2.48;81.24
41573;BME280;27286;47.870;19.006;2023-04-07T05:39:45;99012.06;;;2.48;81.01
41573;BME280;27286;47.870;19.006;2023-04-07T05:42:10;99012.03;;;2.53;82.37
41573;BME280;27286;47.870;19.006;2023-04-07T05:44:36;99014.63;;;2.50;80.91
41573;BME280;27286;47.870;19.006;2023-04-07T05:47:01;99020.63;;;2.49;81.36
41573;BME280;27286;47.870;19.006;2023-04-07T05:49:30;99024.88;;;2.53;82.62
41573;BME280;27286;47.870;19.006;2023-04-07T05:51:56;99024.81;;;2.56;82.63
41573;BME280;27286;47.870;19.006;2023-04-07T05:54:21;99019.66;;;2.57;82.36
41573;BME280;27286;47.870;19.006;2023-04-07T05:56:46;99015.31;;;2.61;81.33
41573;BME280;27286;47.870;19.006;2023-04-07T05:59:12;99027.31;;;2.60;80.77
41573;BME280;27286;47.870;19.006;2023-04-07T06:01:37;99018.69;;;2.63;80.79
41573;BME280;27286;47.870;19.006;2023-04-07T06:04:03;99022.94;;;2.65;80.50
41573;BME280;27286;47.870;19.006;2023-04-07T06:06:28;99023.75;;;2.69;80.72
41573;BME280;27286;47.870;19.006;2023-04-07T06:08:54;99028.84;;;2.72;80.74
41573;BME280;27286;47.870;19.006;2023-04-07T06:11:19;99033.97;;;2.74;80.50
41573;BME280;27286;47.870;19.006;2023-04-07T06:13:45;99038.16;;;2.79;80.48
41573;BME280;27286;47.870;19.006;2023-04-07T06:16:10;99039.78;;;2.83;81.17
41573;BME280;27286;47.870;19.006;2023-04-07T06:18:36;99042.34;;;2.86;81.68
41573;BME280;27286;47.870;19.006;2023-04-07T06:21:02;99037.19;;;2.86;81.07
41573;BME280;27286;47.870;19.006;2023-04-07T06:23:27;99046.63;;;2.86;80.94
41573;BME280;27286;47.870;19.006;2023-04-07T06:25:52;99042.31;;;2.88;81.85
41573;BME280;27286;47.870;19.006;2023-04-07T06:28:18;99040.56;;;2.88;82.10
41573;BME280;27286;47.870;19.006;2023-04-07T06:30:44;99041.44;;;2.89;81.53
41573;BME280;27286;47.870;19.006;2023-04-07T06:33:09;99041.41;;;2.90;81.43
41573;BME280;27286;47.870;19.006;2023-04-07T06:35:35;99039.63;;;2.94;82.11
41573;BME280;27286;47.870;19.006;2023-04-07T06:38:00;99047.19;;;3.01;81.59
41573;BME280;27286;47.870;19.006;2023-04-07T06:40:26;99042.88;;;3.05;80.52
41573;BME280;27286;47.870;19.006;2023-04-07T06:42:51;99049.59;;;3.12;80.49
41573;BME280;27286;47.870;19.006;2023-04-07T06:45:19;99056.34;;;3.18;80.35
41573;BME280;27286;47.870;19.006;2023-04-07T06:47:44;99049.47;;;3.20;79.83
41573;BME280;27286;47.870;19.006;2023-04-07T06:50:10;99054.53;;;3.24;80.18
41573;BME280;27286;47.870;19.006;2023-04-07T06:52:35;99051.94;;;3.26;80.64
41573;BME280;27286;47.870;19.006;2023-04-07T06:55:01;99060.41;;;3.31;80.33
41573;BME280;27286;47.870;19.006;2023-04-07T06:57:26;99058.66;;;3.33;80.14
41573;BME280;27286;47.870;19.006;2023-04-07T06:59:52;99060.25;;;3.40;79.65
41573;BME280;27286;47.870;19.006;2023-04-07T07:02:17;99060.13;;;3.46;80.03
41573;BME280;27286;47.870;19.006;2023-04-07T07:04:42;99066.63;;;3.66;80.03
41573;BME280;27286;47.870;19.006;2023-04-07T07:07:08;99065.50;;;3.79;81.02
41573;BME280;27286;47.870;19.006;2023-04-07T07:09:33;99071.19;;;3.95;78.46
41573;BME280;27286;47.870;19.006;2023-04-07T07:11:59;99071.88;;;4.03;76.98
41573;BME280;27286;47.870;19.006;2023-04-07T07:14:26;99080.25;;;4.14;76.14
41573;BME280;27286;47.870;19.006;2023-04-07T07:16:51;99077.53;;;4.21;74.89
41573;BME280;27286;47.870;19.006;2023-04-07T07:19:17;99083.44;;;4.25;74.03
41573;BME280;27286;47.870;19.006;2023-04-07T07:21:42;99087.63;;;4.31;74.40
41573;BME280;27286;47.870;19.006;2023-04-07T07:24:08;99089.31;;;4.32;74.40
41573;BME280;27286;47.870;19.006;2023-04-07T07:26:33;99083.19;;;4.37;74.97
41573;BME280;27286;47.870;19.006;2023-04-07T07:28:58;99087.25;;;4.47;74.24
41573;BME280;27286;47.870;19.006;2023-04-07T07:31:24;99096.41;;;4.61;73.83
41573;BME280;27286;47.870;19.006;2023-04-07T07:33:50;99094.19;;;4.82;73.95
41573;BME280;27286;47.870;19.006;2023-04-07T07:36:16;99097.47;;;4.89;72.01
41573;BME280;27286;47.870;19.006;2023-04-07T07:38:41;99096.34;;;4.99;69.78
41573;BME280;27286;47.870;19.006;2023-04-07T07:41:07;99105.72;;;5.03;70.03
41573;BME280;27286;47.870;19.006;2023-04-07T07:43:32;99101.91;;;5.18;71.00
41573;BME280;27286;47.870;19.006;2023-04-07T07:45:58;99104.38;;;5.24;70.36
41573;BME280;27286;47.870;19.006;2023-04-07T07:48:23;99099.66;;;5.40;70.39
41573;BME280;27286;47.870;19.006;2023-04-07T07:50:50;99108.75;;;5.55;68.24
41573;BME280;27286;47.870;19.006;2023-04-07T07:53:16;99111.97;;;5.63;69.43
41573;BME280;27286;47.870;19.006;2023-04-07T07:55:42;99111.69;;;5.73;67.69
41573;BME280;27286;47.870;19.006;2023-04-07T07:58:07;99111.56;;;5.78;66.34
41573;BME280;27286;47.870;19.006;2023-04-07T08:00:32;99116.06;;;5.70;66.12
41573;BME280;27286;47.870;19.006;2023-04-07T08:02:58;99122.53;;;5.54;67.49
41573;BME280;27286;47.870;19.006;2023-04-07T08:05:24;99121.00;;;5.47;67.95
41573;BME280;27286;47.870;19.006;2023-04-07T08:07:51;99119.59;;;5.33;67.78
41573;BME280;27286;47.870;19.006;2023-04-07T08:10:17;99119.94;;;5.21;68.14
41573;BME280;27286;47.870;19.006;2023-04-07T08:12:44;99118.16;;;5.23;67.23
41573;BME280;27286;47.870;19.006;2023-04-07T08:15:10;99131.63;;;5.34;67.41
41573;BME280;27286;47.870;19.006;2023-04-07T08:17:36;99125.56;;;5.35;67.52
41573;BME280;27286;47.870;19.006;2023-04-07T08:20:01;99125.31;;;5.46;69.24
41573;BME280;27286;47.870;19.006;2023-04-07T08:22:28;99129.41;;;5.55;66.52
41573;BME280;27286;47.870;19.006;2023-04-07T08:24:53;99135.97;;;5.66;66.64
41573;BME280;27286;47.870;19.006;2023-04-07T08:27:19;99125.38;;;5.77;66.40
41573;BME280;27286;47.870;19.006;2023-04-07T08:29:47;99124.13;;;5.92;67.54
41573;BME280;27286;47.870;19.006;2023-04-07T08:32:13;99137.38;;;5.78;69.25
41573;BME280;27286;47.870;19.006;2023-04-07T08:34:38;99134.16;;;5.70;70.67
41573;BME280;27286;47.870;19.006;2023-04-07T08:37:04;99135.28;;;5.60;71.88
41573;BME280;27286;47.870;19.006;2023-04-07T08:39:29;99136.69;;;5.37;72.57
41573;BME280;27286;47.870;19.006;2023-04-07T08:41:55;99142.78;;;5.35;73.49
41573;BME280;27286;47.870;19.006;2023-04-07T08:44:21;99141.31;;;5.26;74.20
41573;BME280;27286;47.870;19.006;2023-04-07T08:46:50;99141.50;;;5.17;72.67
41573;BME280;27286;47.870;19.006;2023-04-07T08:49:17;99143.25;;;5.17;73.46
41573;BME280;27286;47.870;19.006;2023-04-07T08:51:46;99142.31;;;5.21;73.49
41573;BME280;27286;47.870;19.006;2023-04-07T08:54:14;99142.91;;;5.30;73.54
41573;BME280;27286;47.870;19.006;2023-04-07T08:56:42;99144.66;;;5.30;72.55
41573;BME280;27286;47.870;19.006;2023-04-07T08:59:10;99145.41;;;5.33;73.75
41573;BME280;27286;47.870;19.006;2023-04-07T09:01:36;99144.34;;;5.42;75.89
41573;BME280;27286;47.870;19.006;2023-04-07T09:04:06;99148.25;;;5.58;74.89
41573;BME280;27286;47.870;19.006;2023-04-07T09:06:32;99141.91;;;5.70;72.81
41573;BME280;27286;47.870;19.006;2023-04-07T09:09:01;99137.88;;;5.60;72.95
41573;BME280;27286;47.870;19.006;2023-04-07T09:11:28;99143.72;;;5.66;73.78
41573;BME280;27286;47.870;19.006;2023-04-07T09:13:54;99140.81;;;5.79;72.15
41573;BME280;27286;47.870;19.006;2023-04-07T09:16:20;99144.00;;;5.90;72.73
41573;BME280;27286;47.870;19.006;2023-04-07T09:18:46;99138.25;;;5.79;71.41
41573;BME280;27286;47.870;19.006;2023-04-07T09:21:11;99139.13;;;5.78;72.61
41573;BME280;27286;47.870;19.006;2023-04-07T09:23:38;99137.56;;;5.72;72.52
41573;BME280;27286;47.870;19.006;2023-04-07T09:26:23;99140.06;;;5.75;71.84
41573;BME280;27286;47.870;19.006;2023-04-07T09:28:57;99138.16;;;5.82;72.27
41573;BME280;27286;47.870;19.006;2023-04-07T09:31:23;99151.88;;;5.84;70.42
41573;BME280;27286;47.870;19.006;2023-04-07T09:34:31;99147.72;;;5.78;71.16
41573;BME280;27286;47.870;19.006;2023-04-07T09:36:57;99155.06;;;5.61;72.00
41573;BME280;27286;47.870;19.006;2023-04-07T09:39:23;99154.72;;;5.40;71.46
41573;BME280;27286;47.870;19.006;2023-04-07T09:41:49;99150.75;;;5.27;71.70
41573;BME280;27286;47.870;19.006;2023-04-07T09:44:17;99152.47;;;5.27;71.89
41573;BME280;27286;47.870;19.006;2023-04-07T09:46:57;99150.66;;;5.30;72.79
41573;BME280;27286;47.870;19.006;2023-04-07T09:49:23;99150.81;;;5.24;73.15
41573;BME280;27286;47.870;19.006;2023-04-07T09:51:56;99146.59;;;5.22;73.32
41573;BME280;27286;47.870;19.006;2023-04-07T09:54:41;99155.91;;;5.27;74.56
41573;BME280;27286;47.870;19.006;2023-04-07T09:57:08;99157.47;;;5.33;73.13
41573;BME280;27286;47.870;19.006;2023-04-07T09:59:36;99149.59;;;5.37;73.01
41573;BME280;27286;47.870;19.006;2023-04-07T10:02:02;99149.50;;;5.42;72.61
41573;BME280;27286;47.870;19.006;2023-04-07T10:04:28;99157.31;;;5.40;71.82
41573;BME280;27286;47.870;19.006;2023-04-07T10:06:54;99160.78;;;5.39;72.97
41573;BME280;27286;47.870;19.006;2023-04-07T10:09:27;99154.88;;;5.33;71.91
41573;BME280;27286;47.870;19.006;2023-04-07T10:11:54;99155.81;;;5.30;73.07
41573;BME280;27286;47.870;19.006;2023-04-07T10:14:22;99154.00;;;5.34;72.13
41573;BME280;27286;47.870;19.006;2023-04-07T10:16:49;99155.66;;;5.36;72.88
41573;BME280;27286;47.870;19.006;2023-04-07T10:19:18;99158.00;;;5.47;73.20
41573;BME280;27286;47.870;19.006;2023-04-07T10:21:44;99152.88;;;5.46;72.78
41573;BME280;27286;47.870;19.006;2023-04-07T10:26:50;99160.22;;;5.61;73.50
41573;BME280;27286;47.870;19.006;2023-04-07T10:29:18;99154.34;;;5.56;73.18
41573;BME280;27286;47.870;19.006;2023-04-07T10:31:44;99158.44;;;5.63;74.43
41573;BME280;27286;47.870;19.006;2023-04-07T10:34:10;99154.97;;;5.64;73.41
41573;BME280;27286;47.870;19.006;2023-04-07T10:37:12;99155.56;;;5.75;73.39
41573;BME280;27286;47.870;19.006;2023-04-07T10:39:38;99158.72;;;5.85;73.13
41573;BME280;27286;47.870;19.006;2023-04-07T10:42:04;99157.94;;;5.83;72.08
41573;BME280;27286;47.870;19.006;2023-04-07T10:47:07;99171.94;;;5.74;73.04
41573;BME280;27286;47.870;19.006;2023-04-07T10:49:34;99165.88;;;5.75;73.21
41573;BME280;27286;47.870;19.006;2023-04-07T10:54:40;99168.59;;;5.69;72.65
41573;BME280;27286;47.870;19.006;2023-04-07T10:57:13;99168.50;;;5.73;73.04
41573;BME280;27286;47.870;19.006;2023-04-07T11:02:39;99175.16;;;5.82;72.91
41573;BME280;27286;47.870;19.006;2023-04-07T11:05:05;99179.59;;;5.77;72.04
41573;BME280;27286;47.870;19.006;2023-04-07T11:07:46;99172.94;;;5.68;72.71
41573;BME280;27286;47.870;19.006;2023-04-07T11:10:14;99178.88;;;5.72;72.23
41573;BME280;27286;47.870;19.006;2023-04-07T11:12:41;99178.75;;;5.77;73.08
41573;BME280;27286;47.870;19.006;2023-04-07T11:15:19;99185.03;;;5.66;71.85
41573;BME280;27286;47.870;19.006;2023-04-07T11:17:46;99189.34;;;5.66;72.73
41573;BME280;27286;47.870;19.006;2023-04-07T11:20:56;99185.84;;;5.68;72.36
41573;BME280;27286;47.870;19.006;2023-04-07T11:23:25;99184.09;;;5.69;72.54
41573;BME280;27286;47.870;19.006;2023-04-07T11:25:58;99182.31;;;5.71;72.03
41573;BME280;27286;47.870;19.006;2023-04-07T11:28:26;99183.09;;;5.76;71.89
41573;BME280;27286;47.870;19.006;2023-04-07T11:30:52;99186.28;;;5.84;72.25
41573;BME280;27286;47.870;19.006;2023-04-07T11:33:29;99182.72;;;5.91;72.25
41573;BME280;27286;47.870;19.006;2023-04-07T11:35:58;99179.28;;;5.91;70.71
41573;BME280;27286;47.870;19.006;2023-04-07T11:38:29;99174.91;;;5.93;71.07
41573;BME280;27286;47.870;19.006;2023-04-07T11:40:55;99180.91;;;5.95;71.44
41573;BME280;27286;47.870;19.006;2023-04-07T11:43:25;99180.72;;;6.01;71.62
41573;BME280;27286;47.870;19.006;2023-04-07T11:46:16;99184.06;;;6.04;71.53
41573;BME280;27286;47.870;19.006;2023-04-07T11:48:43;99183.03;;;6.12;70.77
41573;BME280;27286;47.870;19.006;2023-04-07T11:51:16;99183.97;;;6.09;71.04
41573;BME280;27286;47.870;19.006;2023-04-07T11:53:42;99170.69;;;5.90;70.72
41573;BME280;27286;47.870;19.006;2023-04-07T11:56:11;99188.00;;;5.85;70.75
41573;BME280;27286;47.870;19.006;2023-04-07T11:58:51;99174.13;;;5.89;71.50
41573;BME280;27286;47.870;19.006;2023-04-07T12:01:17;99185.16;;;5.96;71.29
41573;BME280;27286;47.870;19.006;2023-04-07T12:03:59;99183.59;;;5.90;70.84
41573;BME280;27286;47.870;19.006;2023-04-07T12:09:03;99179.59;;;6.11;71.69
41573;BME280;27286;47.870;19.006;2023-04-07T12:11:29;99176.91;;;6.14;71.60
41573;BME280;27286;47.870;19.006;2023-04-07T12:13:56;99180.34;;;6.15;71.70
41573;BME280;27286;47.870;19.006;2023-04-07T12:16:22;99180.81;;;5.98;71.44
41573;BME280;27286;47.870;19.006;2023-04-07T12:18:48;99174.28;;;5.83;72.68
41573;BME280;27286;47.870;19.006;2023-04-07T12:21:15;99175.34;;;5.76;73.08
41573;BME280;27286;47.870;19.006;2023-04-07T12:23:41;99172.44;;;5.87;73.42
41573;BME280;27286;47.870;19.006;2023-04-07T12:26:07;99171.13;;;6.06;73.39
41573;BME280;27286;47.870;19.006;2023-04-07T12:28:32;99167.34;;;6.18;71.86
41573;BME280;27286;47.870;19.006;2023-04-07T12:30:58;99170.06;;;6.13;71.07
41573;BME280;27286;47.870;19.006;2023-04-07T12:33:23;99172.25;;;5.96;71.35
41573;BME280;27286;47.870;19.006;2023-04-07T12:35:49;99169.47;;;5.69;72.63
41573;BME280;27286;47.870;19.006;2023-04-07T12:38:15;99174.72;;;5.66;73.00
41573;BME280;27286;47.870;19.006;2023-04-07T12:40:41;99173.00;;;5.65;73.17
41573;BME280;27286;47.870;19.006;2023-04-07T12:43:07;99177.88;;;5.78;72.41
41573;BME280;27286;47.870;19.006;2023-04-07T12:45:32;99182.03;;;5.83;72.80
41573;BME280;27286;47.870;19.006;2023-04-07T12:47:58;99186.19;;;5.89;72.75
41573;BME280;27286;47.870;19.006;2023-04-07T12:50:24;99181.97;;;5.85;73.57
41573;BME280;27286;47.870;19.006;2023-04-07T12:52:50;99186.56;;;5.75;73.00
41573;BME280;27286;47.870;19.006;2023-04-07T12:55:16;99177.41;;;5.62;73.64
41573;BME280;27286;47.870;19.006;2023-04-07T12:57:41;99183.50;;;5.59;73.51
41573;BME280;27286;47.870;19.006;2023-04-07T13:00:07;99183.59;;;5.56;73.89
41573;BME280;27286;47.870;19.006;2023-04-07T13:02:33;99178.25;;;5.62;73.93
41573;BME280;27286;47.870;19.006;2023-04-07T13:05:01;99177.25;;;5.68;74.10
41573;BME280;27286;47.870;19.006;2023-04-07T13:07:26;99185.78;;;5.71;74.10
41573;BME280;27286;47.870;19.006;2023-04-07T13:09:52;99182.22;;;5.76;74.33
41573;BME280;27286;47.870;19.006;2023-04-07T13:12:18;99182.78;;;5.87;75.32
41573;BME280;27286;47.870;19.006;2023-04-07T13:14:44;99186.09;;;5.93;74.26
41573;BME280;27286;47.870;19.006;2023-04-07T13:17:09;99183.63;;;5.87;73.57
41573;BME280;27286;47.870;19.006;2023-04-07T13:19:35;99180.19;;;5.88;73.29